Decoded Metar for CWRX (ROWLEY ISLAND in NU, CANADA) (IATA:WRX) | Meteo·Mobile Aviation Weather
aviador You're here:

CWRX Decoded Metar

ROWLEY ISLAND in NU, CANADA
Report Time2019-05-19 23:00:00
UTC Time2019-05-19 23:18:02
Flight Rules lifr LIFR
Wind280° at 09 kt
Visibility0 m
Phenomena:N/A
Clouds:Overcast 013 Hf
Expected CloudBase > 1,200 ft AGL from Temp-Dew spread
Ceiling1,300 ft
Temp-6°C (ISA -21)
Dew Point-9°C (80% RH)
AAT-12.2°C
QNH1026 hPa
Density Alt-2,835 ft
Elevation135 ft
Report Wrong Elevation
Raw Report
CWRX 192300Z AUTO 28009KT ////SM //// OVC013 M06/M09 A3031=

Extra information for CWRX:More info

Metar Taf Metar & Taf Last 4 Metars F.Rules Stats Wind Profile Meteogram Temp Stats Airport Information Weather charts Add Link Nearby VenuesMetar ALERT Operation Metar Decoded Social comments